Observation data for Hart on 05/25/2019      Previous  Date  Next       Current Mesonet Observations  Soil Data  Daily Summary Page  Observations in Plain Language
KHRS 250500Z 16012KT 19/13 A2997 RMK A01 T01880127  RH  069%=      5-min Rain = 0
KHRS 250505Z 16011KT 19/13 A2997 RMK A01 T01870128  RH  070%=      5-min Rain = 0
KHRS 250510Z 16011KT 19/13 A2997 RMK A01 T01870134  RH  073%=      5-min Rain = 0
KHRS 250515Z 16012G17KT 19/14 A2997 RMK A01 T01880140  RH  075%=      5-min Rain = 0
KHRS 250520Z 16013KT 19/14 A2997 RMK A01 T01910144  RH  076%=      5-min Rain = 0
KHRS 250525Z 16013KT 19/15 A2997 RMK A01 T01930146  RH  076%=      5-min Rain = 0
KHRS 250530Z 16014G19KT 19/15 A2997 RMK A01 T01940148  RH  077%=      5-min Rain = 0
KHRS 250535Z 15013G20KT 19/15 A2997 RMK A01 T01940151  RH  078%=      5-min Rain = 0
KHRS 250540Z 15012G17KT 19/15 A2998 RMK A01 T01940152  RH  079%=      5-min Rain = 0
KHRS 250545Z 15012G18KT 19/15 A2998 RMK A01 T01920154  RH  080%=      5-min Rain = 0
KHRS 250550Z 15014KT 19/16 A2998 RMK A01 T01910155  RH  082%=      5-min Rain = 0
KHRS 250555Z 14015KT 19/16 A2998 RMK A01 T01890156  RH  083%=      5-min Rain = 0
KHRS 250600Z 14013G18KT 19/16 A2998 RMK A01 T01880157  RH  084%=      5-min Rain = 0
KHRS 250605Z 15012G17KT 19/16 A2998 RMK A01 T01870158  RH  085%=      5-min Rain = 0
KHRS 250610Z 15011G16KT 19/16 A2998 RMK A01 T01860159  RH  086%=      5-min Rain = 0
KHRS 250615Z 16010KT 19/16 A2998 RMK A01 T01850159  RH  086%=      5-min Rain = 0
KHRS 250620Z 15011G16KT 19/16 A2998 RMK A01 T01850159  RH  087%=      5-min Rain = 0
KHRS 250625Z 14014KT 18/16 A2998 RMK A01 T01840160  RH  088%=      5-min Rain = 0
KHRS 250630Z 14013KT 18/16 A2998 RMK A01 T01830160  RH  088%=      5-min Rain = 0
KHRS 250635Z 15010G15KT 18/16 A2998 RMK A01 T01820160  RH  089%=      5-min Rain = 0
KHRS 250640Z 15009G14KT 18/16 A2998 RMK A01 T01820161  RH  089%=      5-min Rain = 0
KHRS 250645Z 14011KT 18/16 A2998 RMK A01 T01820161  RH  090%=      5-min Rain = 0
KHRS 250650Z 14013KT 18/16 A2998 RMK A01 T01830162  RH  090%=      5-min Rain = 0
KHRS 250655Z 14014KT 18/16 A2998 RMK A01 T01830163  RH  090%=      5-min Rain = 0
KHRS 250700Z 14012KT 18/16 A2998 RMK A01 T01830163  RH  090%=      5-min Rain = 0
KHRS 250705Z 14012KT 18/16 A2998 RMK A01 T01830163  RH  090%=      5-min Rain = 0
KHRS 250710Z 15010G15KT 18/16 A2998 RMK A01 T01830164  RH  090%=      5-min Rain = 0
KHRS 250715Z 15008G13KT 18/16 A2998 RMK A01 T01830163  RH  091%=      5-min Rain = 0
KHRS 250720Z 15008KT 18/16 A2998 RMK A01 T01820163  RH  091%=      5-min Rain = 0
KHRS 250725Z 14010KT 18/16 A2998 RMK A01 T01810163  RH  091%=      5-min Rain = 0
KHRS 250730Z 15010KT 18/16 A2998 RMK A01 T01810163  RH  091%=      5-min Rain = 0
KHRS 250735Z 15009G14KT 18/16 A2998 RMK A01 T01800163  RH  092%=      5-min Rain = 0
KHRS 250740Z 14011KT 18/16 A2998 RMK A01 T01800163  RH  092%=      5-min Rain = 0
KHRS 250745Z 14011KT 18/16 A2998 RMK A01 T01790162  RH  092%=      5-min Rain = 0
KHRS 250750Z 14011KT 18/16 A2998 RMK A01 T01780162  RH  092%=      5-min Rain = 0
KHRS 250755Z 14012G17KT 18/16 A2998 RMK A01 T01770161  RH  093%=      5-min Rain = 0
KHRS 250800Z 15011KT 18/16 A2998 RMK A01 T01760161  RH  093%=      5-min Rain = 0
KHRS 250805Z 15012KT 17/16 A2998 RMK A01 T01740160  RH  093%=      5-min Rain = 0
KHRS 250810Z 14013KT 17/16 A2997 RMK A01 T01730160  RH  094%=      5-min Rain = 0
KHRS 250815Z 15010KT 17/16 A2997 RMK A01 T01730160  RH  094%=      5-min Rain = 0
KHRS 250820Z 14010KT 17/16 A2997 RMK A01 T01730160  RH  094%=      5-min Rain = 0
KHRS 250825Z 14011KT 17/16 A2997 RMK A01 T01730161  RH  094%=      5-min Rain = 0
KHRS 250830Z 15010KT 17/16 A2997 RMK A01 T01730161  RH  094%=      5-min Rain = 0
KHRS 250835Z 14010KT 17/16 A2997 RMK A01 T01730161  RH  095%=      5-min Rain = 0
KHRS 250840Z 14010KT 17/16 A2997 RMK A01 T01730161  RH  095%=      5-min Rain = 0
KHRS 250845Z 14010KT 17/16 A2997 RMK A01 T01730161  RH  095%=      5-min Rain = 0
KHRS 250850Z 14010KT 17/16 A2997 RMK A01 T01730161  RH  095%=      5-min Rain = 0
KHRS 250855Z 14009KT 17/16 A2997 RMK A01 T01730161  RH  095%=      5-min Rain = 0
KHRS 250900Z 14009KT 17/16 A2997 RMK A01 T01730161  RH  095%=      5-min Rain = 0
KHRS 250905Z 14009KT 17/16 A2997 RMK A01 T01740162  RH  095%=      5-min Rain = 0
KHRS 250910Z 14011KT 17/16 A2997 RMK A01 T01740163  RH  095%=      5-min Rain = 0
KHRS 250915Z 14009KT 17/16 A2996 RMK A01 T01740163  RH  095%=      5-min Rain = 0
KHRS 250920Z 14009KT 18/16 A2996 RMK A01 T01750164  RH  096%=      5-min Rain = 0
KHRS 250925Z 14010KT 18/16 A2996 RMK A01 T01750164  RH  096%=      5-min Rain = 0
KHRS 250930Z 14009KT 18/17 A2996 RMK A01 T01750165  RH  096%=      5-min Rain = 0
KHRS 250935Z 15008G13KT 18/17 A2996 RMK A01 T01750165  RH  096%=      5-min Rain = 0
KHRS 250940Z 15009G14KT 18/17 A2996 RMK A01 T01760166  RH  096%=      5-min Rain = 0
KHRS 250945Z 15010KT 18/17 A2997 RMK A01 T01760167  RH  096%=      5-min Rain = 0
KHRS 250950Z 15008G13KT 18/17 A2997 RMK A01 T01770167  RH  096%=      5-min Rain = 0
KHRS 250955Z 15008KT 18/17 A2997 RMK A01 T01770167  RH  096%=      5-min Rain = 0
KHRS 251000Z 15009KT 18/17 A2997 RMK A01 T01770167  RH  096%=      5-min Rain = 0
KHRS 251005Z 15010G16KT 18/17 A2997 RMK A01 T01770167  RH  096%=      5-min Rain = 0
KHRS 251010Z 15010G15KT 18/17 A2997 RMK A01 T01770168  RH  096%=      5-min Rain = 0
KHRS 251015Z 15009KT 18/17 A2997 RMK A01 T01770168  RH  097%=      5-min Rain = 0
KHRS 251020Z 15010G15KT 18/17 A2998 RMK A01 T01770168  RH  097%=      5-min Rain = 0
KHRS 251025Z 15009G15KT 18/17 A2998 RMK A01 T01780169  RH  097%=      5-min Rain = 0
KHRS 251030Z 15010KT 18/17 A2998 RMK A01 T01780169  RH  097%=      5-min Rain = 0
KHRS 251035Z 15008KT 18/17 A2998 RMK A01 T01780170  RH  097%=      5-min Rain = 0
KHRS 251040Z 15010KT 18/17 A2998 RMK A01 T01790170  RH  097%=      5-min Rain = 0
KHRS 251045Z 15010KT 18/17 A2998 RMK A01 T01790171  RH  097%=      5-min Rain = 0
KHRS 251050Z 15009G14KT 18/17 A2998 RMK A01 T01800171  RH  097%=      5-min Rain = 0
KHRS 251055Z 15010KT 18/17 A2998 RMK A01 T01800171  RH  097%=      5-min Rain = 0
KHRS 251100Z 15010G15KT 18/17 A2998 RMK A01 T01800172  RH  097%=      5-min Rain = 0
KHRS 251105Z 15011G17KT 18/17 A2998 RMK A01 T01810172  RH  097%=      5-min Rain = 0
KHRS 251110Z 15009G16KT 18/17 A2998 RMK A01 T01810173  RH  097%=      5-min Rain = 0
KHRS 251115Z 16011G17KT 18/17 A2999 RMK A01 T01810173  RH  097%=      5-min Rain = 0
KHRS 251120Z 16011G17KT 18/17 A2999 RMK A01 T01820174  RH  097%=      5-min Rain = 0
KHRS 251125Z 16012G17KT 18/17 A2999 RMK A01 T01830174  RH  097%=      5-min Rain = 0
KHRS 251130Z 16012G19KT 18/18 A2999 RMK A01 T01830175  RH  097%=      5-min Rain = 0
KHRS 251135Z 16012KT 18/18 A2999 RMK A01 T01830175  RH  097%=      5-min Rain = 0
KHRS 251140Z 16010G15KT 18/18 A2999 RMK A01 T01840175  RH  097%=      5-min Rain = 0
KHRS 251145Z 16010G15KT 18/18 A30 RMK A01 T01840176  RH  097%=      5-min Rain = 0
KHRS 251150Z 16009G15KT 18/18 A30 RMK A01 T01840176  RH  097%=      5-min Rain = 0
KHRS 251155Z 16009G16KT 19/18 A30 RMK A01 T01850176  RH  097%=      5-min Rain = 0
KHRS 251200Z 16010G16KT 19/18 A30 RMK A01 T01850177  RH  097%=      5-min Rain = 0
KHRS 251205Z 16010G16KT 19/18 A30 RMK A01 T01850177  RH  097%=      5-min Rain = 0
KHRS 251210Z 16010G16KT 19/18 A30 RMK A01 T01860177  RH  097%=      5-min Rain = 0
KHRS 251215Z 16012KT 19/18 A30 RMK A01 T01860177  RH  097%=      5-min Rain = 0
KHRS 251220Z 16012KT 19/18 A30 RMK A01 T01860177  RH  097%=      5-min Rain = 0
KHRS 251225Z 16010G16KT 19/18 A30 RMK A01 T01860178  RH  097%=      5-min Rain = 0
KHRS 251230Z 16010G15KT 19/18 A30 RMK A01 T01860178  RH  097%=      5-min Rain = 0
KHRS 251235Z 16011G16KT 19/18 A30 RMK A01 T01870179  RH  097%=      5-min Rain = 0
KHRS 251240Z 16012G17KT 19/18 A3001 RMK A01 T01870179  RH  097%=      5-min Rain = 0
KHRS 251245Z 16011KT 19/18 A3001 RMK A01 T01880180  RH  098%=      5-min Rain = 0
KHRS 251250Z 16010G18KT 19/18 A3001 RMK A01 T01880180  RH  098%=      5-min Rain = 0
KHRS 251255Z 16014G19KT 19/18 A3001 RMK A01 T01880180  RH  097%=      5-min Rain = 0
KHRS 251300Z 16013G20KT 19/18 A3002 RMK A01 T01890181  RH  097%=      5-min Rain = 0
KHRS 251305Z 16013G18KT 19/18 A3002 RMK A01 T01890180  RH  097%=      5-min Rain = 0
KHRS 251310Z 16012G17KT 19/18 A3002 RMK A01 T01890181  RH  097%=      5-min Rain = 0
KHRS 251315Z 16011G17KT 19/18 A3002 RMK A01 T01890180  RH  097%=      5-min Rain = 0
KHRS 251320Z 17012G17KT 19/18 A3002 RMK A01 T01900181  RH  097%=      5-min Rain = 0
KHRS 251325Z 17009G18KT 19/18 A3002 RMK A01 T01910182  RH  097%=      5-min Rain = 0
KHRS 251330Z 17010G17KT 19/18 A3003 RMK A01 T01920182  RH  096%=      5-min Rain = 0
KHRS 251335Z 17010G18KT 19/18 A3003 RMK A01 T01920182  RH  096%=      5-min Rain = 0
KHRS 251340Z 17009G15KT 19/18 A3003 RMK A01 T01930182  RH  096%=      5-min Rain = 0
KHRS 251345Z 17011G17KT 19/18 A3003 RMK A01 T01940183  RH  096%=      5-min Rain = 0
KHRS 251350Z 17012G17KT 20/18 A3003 RMK A01 T01950183  RH  095%=      5-min Rain = 0
KHRS 251355Z 18012G17KT 20/18 A3003 RMK A01 T01970184  RH  095%=      5-min Rain = 0
KHRS 251400Z 17010G16KT 20/18 A3003 RMK A01 T01980184  RH  094%=      5-min Rain = 0
KHRS 251405Z 17010G17KT 20/19 A3003 RMK A01 T02000186  RH  094%=      5-min Rain = 0
KHRS 251410Z 17012G18KT 20/19 A3003 RMK A01 T02010185  RH  093%=      5-min Rain = 0
KHRS 251415Z 17010G16KT 20/19 A3003 RMK A01 T02020186  RH  093%=      5-min Rain = 0
KHRS 251420Z 17011G19KT 20/19 A3003 RMK A01 T02040186  RH  092%=      5-min Rain = 0
KHRS 251425Z 17013G20KT 21/19 A3003 RMK A01 T02050186  RH  091%=      5-min Rain = 0
KHRS 251430Z 18014G19KT 21/19 A3003 RMK A01 T02060186  RH  091%=      5-min Rain = 0
KHRS 251435Z 18014G21KT 21/19 A3003 RMK A01 T02090187  RH  090%=      5-min Rain = 0
KHRS 251440Z 18013G19KT 21/19 A3003 RMK A01 T02090187  RH  089%=      5-min Rain = 0
KHRS 251445Z 18014G19KT 21/19 A3003 RMK A01 T02090186  RH  089%=      5-min Rain = 0
KHRS 251450Z 18013G20KT 21/19 A3003 RMK A01 T02100187  RH  089%=      5-min Rain = 0
KHRS 251455Z 17013G20KT 21/19 A3003 RMK A01 T02140189  RH  088%=      5-min Rain = 0
KHRS 251500Z 18012G19KT 22/19 A3003 RMK A01 T02170190  RH  087%=      5-min Rain = 0
KHRS 251505Z 18014G19KT 22/19 A3003 RMK A01 T02180188  RH  085%=      5-min Rain = 0
KHRS 251510Z 18013KT 21/19 A3003 RMK A01 T02140187  RH  087%=      5-min Rain = 0
KHRS 251515Z 18014G21KT 21/19 A3003 RMK A01 T02130187  RH  087%=      5-min Rain = 0
KHRS 251520Z 17012G18KT 21/19 A3003 RMK A01 T02120187  RH  088%=      5-min Rain = 0
KHRS 251525Z 18013G18KT 21/19 A3003 RMK A01 T02130188  RH  087%=      5-min Rain = 0
KHRS 251530Z 17014G20KT 21/19 A3003 RMK A01 T02140188  RH  087%=      5-min Rain = 0
KHRS 251535Z 18011G17KT 22/19 A3003 RMK A01 T02150189  RH  087%=      5-min Rain = 0
KHRS 251540Z 17013KT 22/19 A3003 RMK A01 T02170188  RH  086%=      5-min Rain = 0
KHRS 251545Z 17011G18KT 22/19 A3003 RMK A01 T02190189  RH  085%=      5-min Rain = 0
KHRS 251550Z 18011G16KT 22/19 A3003 RMK A01 T02210189  RH  084%=      5-min Rain = 0
KHRS 251555Z 17010G18KT 22/19 A3003 RMK A01 T02230189  RH  084%=      5-min Rain = 0
KHRS 251600Z 16013G19KT 22/19 A3003 RMK A01 T02210188  RH  084%=      5-min Rain = 0
KHRS 251605Z 16012G18KT 22/19 A3003 RMK A01 T02200188  RH  084%=      5-min Rain = 0
KHRS 251610Z 16013G20KT 22/19 A3003 RMK A01 T02210188  RH  084%=      5-min Rain = 0
KHRS 251615Z 16014G21KT 22/19 A3002 RMK A01 T02220189  RH  083%=      5-min Rain = 0
KHRS 251620Z 16014G21KT 22/19 A3003 RMK A01 T02240188  RH  082%=      5-min Rain = 0
KHRS 251625Z 16013G21KT 23/19 A3003 RMK A01 T02250189  RH  082%=      5-min Rain = 0
KHRS 251630Z 16015G22KT 22/19 A3003 RMK A01 T02230188  RH  083%=      5-min Rain = 0
KHRS 251635Z 17013G19KT 22/19 A3003 RMK A01 T02230188  RH  083%=      5-min Rain = 0
KHRS 251640Z 17013G19KT 22/19 A3003 RMK A01 T02230188  RH  083%=      5-min Rain = 0
KHRS 251645Z 17012G18KT 22/19 A3003 RMK A01 T02210187  RH  083%=      5-min Rain = 0
KHRS 251650Z 16013G20KT 22/19 A3004 RMK A01 T02180187  RH  084%=      5-min Rain = 0
KHRS 251655Z 17012G18KT 22/19 A3004 RMK A01 T02170187  RH  085%=      5-min Rain = 0
KHRS 251700Z 17013G20KT 22/19 A3004 RMK A01 T02180187  RH  085%=      5-min Rain = 0
KHRS 251705Z 18011G20KT 22/19 A3004 RMK A01 T02170187  RH  085%=      5-min Rain = 0
KHRS 251710Z 17012G20KT 22/19 A3004 RMK A01 T02180187  RH  085%=      5-min Rain = 0
KHRS 251715Z 17012G17KT 22/19 A3004 RMK A01 T02190188  RH  085%=      5-min Rain = 0
KHRS 251720Z 16012G19KT 22/19 A3003 RMK A01 T02190188  RH  085%=      5-min Rain = 0
KHRS 251725Z 16011G16KT 22/19 A3003 RMK A01 T02200189  RH  085%=      5-min Rain = 0
KHRS 251730Z 17012G18KT 22/19 A3003 RMK A01 T02210189  RH  084%=      5-min Rain = 0
KHRS 251735Z 16011G16KT 22/19 A3003 RMK A01 T02210189  RH  084%=      5-min Rain = 0
KHRS 251740Z 16015G21KT 22/19 A3003 RMK A01 T02200188  RH  084%=      5-min Rain = 0
KHRS 251745Z 16012G18KT 22/19 A3003 RMK A01 T02190188  RH  085%=      5-min Rain = 0
KHRS 251750Z 15013G20KT 22/19 A3002 RMK A01 T02190188  RH  085%=      5-min Rain = 0
KHRS 251755Z 15013G19KT 22/19 A3002 RMK A01 T02170188  RH  086%=      5-min Rain = 0
KHRS 251800Z 15014G19KT 22/19 A3002 RMK A01 T02170188  RH  086%=      5-min Rain = 0
KHRS 251805Z 15013G19KT 22/19 A3002 RMK A01 T02160187  RH  086%=      5-min Rain = 0
KHRS 251810Z 15013KT 22/19 A3002 RMK A01 T02150187  RH  086%=      5-min Rain = 0
KHRS 251815Z 15013G19KT 21/19 A3002 RMK A01 T02140187  RH  087%=      5-min Rain = 0
KHRS 251820Z 16014G20KT 21/19 A3002 RMK A01 T02120186  RH  087%=      5-min Rain = 0
KHRS 251825Z 16013G21KT 21/19 A3002 RMK A01 T02110186  RH  088%=      5-min Rain = 0
KHRS 251830Z 16015G20KT 21/19 A3002 RMK A01 T02110186  RH  088%=      5-min Rain = 0
KHRS 251835Z 15013G18KT 21/19 A3001 RMK A01 T02100186  RH  088%=      5-min Rain = 0
KHRS 251840Z 16013G19KT 21/19 A3001 RMK A01 T02100186  RH  089%=      5-min Rain = 0
KHRS 251845Z 15012G18KT 21/19 A3001 RMK A01 T02090187  RH  090%=      5-min Rain = 0
KHRS 251850Z 14013G18KT 21/19 A2999 RMK A01 T02070187  RH  091%=      5-min Rain = 0
KHRS 251855Z 14012G18KT 21/19 A2999 RMK A01 T02050188  RH  092%=      5-min Rain = 0
KHRS 251900Z 15012G17KT 20/19 A2999 RMK A01 T02040188  RH  093%=      5-min Rain = 0
KHRS 251905Z 14013G19KT 20/19 A2998 RMK A01 T02030188  RH  093%=      5-min Rain = 0
KHRS 251910Z 15012G17KT 20/19 A30 RMK A01 T02030188  RH  093%=      5-min Rain = 0
KHRS 251915Z 16009G14KT 20/19 A3001 RMK A01 T02030188  RH  093%=      5-min Rain = 0
KHRS 251920Z 15009G14KT 20/19 A30 RMK A01 T02040188  RH  093%=      5-min Rain = 0
KHRS 251925Z 15009G14KT 20/19 A30 RMK A01 T02030187  RH  093%=      5-min Rain = 0
KHRS 251930Z 16010G15KT 20/19 A3001 RMK A01 T02020187  RH  093%=      5-min Rain = 0
KHRS 251935Z 16008KT 20/19 A3001 RMK A01 T02020187  RH  094%=      5-min Rain = 0
KHRS 251940Z 13018KT 20/19 A2997 RMK A01 T02000187  RH  095%=      5-min Rain = 0.01
KHRS 251945Z 14018G24KT 20/19 A2999 RMK A01 T01990188  RH  096%=      5-min Rain = 0.02
KHRS 251950Z 16019G25KT 20/19 A3001 RMK A01 T01980187  RH  096%=      5-min Rain = 0.02
KHRS 251955Z 15019G28KT 20/19 A2999 RMK A01 T01950185  RH  096%=      5-min Rain = 0.02
KHRS 252000Z 12022G28KT 18/16 A2996 RMK A01 T01780161  RH  092%=      5-min Rain = 0.01
KHRS 252005Z 13017G23KT 17/15 A2995 RMK A01 T01690147  RH  089%=      5-min Rain = 0
KHRS 252010Z 13017G22KT 17/14 A2995 RMK A01 T01700142  RH  085%=      5-min Rain = 0
KHRS 252015Z 13016G21KT 17/14 A2997 RMK A01 T01710144  RH  086%=      5-min Rain = 0
KHRS 252020Z 13019G25KT 17/15 A2997 RMK A01 T01710148  RH  089%=      5-min Rain = 0
KHRS 252025Z 13019G24KT 17/15 A2997 RMK A01 T01700154  RH  092%=      5-min Rain = 0
KHRS 252030Z 13016KT 17/16 A2997 RMK A01 T01700155  RH  093%=      5-min Rain = 0
KHRS 252035Z 13013G18KT 18/16 A2996 RMK A01 T01810164  RH  092%=      5-min Rain = 0
KHRS 252040Z 13015KT 20/17 A2996 RMK A01 T01950168  RH  086%=      5-min Rain = 0
KHRS 252045Z 13016KT 20/17 A2997 RMK A01 T02040171  RH  084%=      5-min Rain = 0
KHRS 252050Z 13014KT 21/17 A2996 RMK A01 T02080174  RH  083%=      5-min Rain = 0
KHRS 252055Z 12017KT 21/17 A2997 RMK A01 T02090170  RH  080%=      5-min Rain = 0
KHRS 252100Z 12015G21KT 20/16 A2997 RMK A01 T01980161  RH  081%=      5-min Rain = 0
KHRS 252105Z 12012KT 20/16 A2997 RMK A01 T01950162  RH  083%=      5-min Rain = 0
KHRS 252110Z 13012KT 19/16 A2997 RMK A01 T01920160  RH  084%=      5-min Rain = 0
KHRS 252115Z 14010KT 19/16 A2996 RMK A01 T01910159  RH  083%=      5-min Rain = 0
KHRS 252120Z 14009KT 19/16 A2996 RMK A01 T01920160  RH  084%=      5-min Rain = 0
KHRS 252125Z 13009KT 19/16 A2995 RMK A01 T01910160  RH  084%=      5-min Rain = 0
KHRS 252130Z 14008KT 19/16 A2994 RMK A01 T01910163  RH  086%=      5-min Rain = 0
KHRS 252135Z 15008KT 20/17 A2995 RMK A01 T01960167  RH  085%=      5-min Rain = 0
KHRS 252140Z 14008KT 20/17 A2994 RMK A01 T02000165  RH  082%=      5-min Rain = 0
KHRS 252145Z 14009KT 20/17 A2993 RMK A01 T02020169  RH  084%=      5-min Rain = 0
KHRS 252150Z 14011KT 21/17 A2995 RMK A01 T02050173  RH  084%=      5-min Rain = 0
KHRS 252155Z 14012G17KT 20/17 A2995 RMK A01 T02010173  RH  086%=      5-min Rain = 0
KHRS 252200Z 14009KT 20/17 A2995 RMK A01 T01950171  RH  088%=      5-min Rain = 0
KHRS 252205Z 13011KT 19/17 A2995 RMK A01 T01930171  RH  089%=      5-min Rain = 0
KHRS 252210Z 12012KT 19/17 A2994 RMK A01 T01900171  RH  091%=      5-min Rain = 0
KHRS 252215Z 12012KT 19/17 A2994 RMK A01 T01910174  RH  093%=      5-min Rain = 0
KHRS 252220Z 13012G18KT 19/18 A2993 RMK A01 T01940180  RH  094%=      5-min Rain = 0
KHRS 252225Z 14014G20KT 20/19 A2993 RMK A01 T01990186  RH  094%=      5-min Rain = 0
KHRS 252230Z 14019G25KT 20/18 A2994 RMK A01 T02040183  RH  090%=      5-min Rain = 0
KHRS 252235Z 14019G26KT 20/16 A2993 RMK A01 T02010161  RH  080%=      5-min Rain = 0
KHRS 252240Z 12016G21KT 19/15 A2993 RMK A01 T01940152  RH  079%=      5-min Rain = 0
KHRS 252245Z 14014G20KT 19/15 A2994 RMK A01 T01930149  RH  077%=      5-min Rain = 0
KHRS 252250Z 13009G15KT 19/15 A2993 RMK A01 T01920149  RH  078%=      5-min Rain = 0
KHRS 252255Z 10010G15KT 19/15 A2994 RMK A01 T01930150  RH  078%=      5-min Rain = 0
KHRS 252300Z 06007KT 19/15 A2994 RMK A01 T01910152  RH  080%=      5-min Rain = 0
KHRS 252305Z 03006KT 19/16 A2994 RMK A01 T01880155  RH  083%=      5-min Rain = 0
KHRS 252310Z 04004KT 19/16 A2997 RMK A01 T01870157  RH  085%=      5-min Rain = 0
KHRS 252315Z 04005KT 19/16 A2997 RMK A01 T01870160  RH  086%=      5-min Rain = 0.04
KHRS 252320Z 09009G14KT 19/16 A2997 RMK A01 T01850161  RH  088%=      5-min Rain = 0
KHRS 252325Z 11016KT 18/16 A2996 RMK A01 T01820162  RH  090%=      5-min Rain = 0
KHRS 252330Z 14020G31KT 19/16 A2999 RMK A01 T01850156  RH  085%=      5-min Rain = 0
KHRS 252335Z 15022G31KT 19/16 A30 RMK A01 T01860156  RH  085%=      5-min Rain = 0.03
KHRS 252340Z 14013G20KT 18/16 A30 RMK A01 T01770155  RH  089%=      5-min Rain = 0
KHRS 252345Z 12004G11KT 17/16 A2998 RMK A01 T01730156  RH  092%=      5-min Rain = 0
KHRS 252350Z 05004KT 17/16 A2995 RMK A01 T01720156  RH  093%=      5-min Rain = 0
KHRS 252355Z 01005KT 17/16 A2995 RMK A01 T01730159  RH  093%=      5-min Rain = 0
KHRS 260000Z 00005KT 18/16 A2995 RMK A01 T01750161  RH  093%=      5-min Rain = 0
KHRS 260005Z 09004KT 18/16 A2996 RMK A01 T01770163  RH  093%=      5-min Rain = 0
KHRS 260010Z 10008KT 18/17 A2997 RMK A01 T01800165  RH  093%=      5-min Rain = 0
KHRS 260015Z 09008KT 18/17 A2996 RMK A01 T01820165  RH  092%=      5-min Rain = 0
KHRS 260020Z 08009KT 18/16 A2996 RMK A01 T01830164  RH  091%=      5-min Rain = 0
KHRS 260025Z 07009KT 18/16 A2996 RMK A01 T01830164  RH  091%=      5-min Rain = 0
KHRS 260030Z 07008KT 18/16 A2995 RMK A01 T01840163  RH  090%=      5-min Rain = 0
KHRS 260035Z 08007KT 19/17 A2995 RMK A01 T01860165  RH  090%=      5-min Rain = 0
KHRS 260040Z 09012KT 19/17 A2996 RMK A01 T01870165  RH  089%=      5-min Rain = 0
KHRS 260045Z 09014KT 19/16 A2996 RMK A01 T01860160  RH  087%=      5-min Rain = 0
KHRS 260050Z 09011KT 19/16 A2995 RMK A01 T01860157  RH  085%=      5-min Rain = 0
KHRS 260055Z 08009KT 19/16 A2995 RMK A01 T01860158  RH  086%=      5-min Rain = 0
KHRS 260100Z 08010KT 19/16 A2995 RMK A01 T01860159  RH  087%=      5-min Rain = 0
KHRS 260105Z 09010KT 18/16 A2995 RMK A01 T01840155  RH  085%=      5-min Rain = 0
KHRS 260110Z 09011KT 18/15 A2995 RMK A01 T01830154  RH  085%=      5-min Rain = 0
KHRS 260115Z 09011KT 18/16 A2995 RMK A01 T01820155  RH  086%=      5-min Rain = 0
KHRS 260120Z 09010KT 18/16 A2995 RMK A01 T01810155  RH  086%=      5-min Rain = 0
KHRS 260125Z 09009KT 18/16 A2995 RMK A01 T01810155  RH  087%=      5-min Rain = 0
KHRS 260130Z 10009KT 18/16 A2995 RMK A01 T01810156  RH  088%=      5-min Rain = 0
KHRS 260135Z 09009KT 18/16 A2995 RMK A01 T01800158  RH  089%=      5-min Rain = 0
KHRS 260140Z 10008KT 18/16 A2995 RMK A01 T01790160  RH  090%=      5-min Rain = 0
KHRS 260145Z 10008KT 18/16 A2995 RMK A01 T01790161  RH  091%=      5-min Rain = 0
KHRS 260150Z 10008KT 18/16 A2995 RMK A01 T01780162  RH  092%=      5-min Rain = 0
KHRS 260155Z 10009KT 18/16 A2995 RMK A01 T01780162  RH  092%=      5-min Rain = 0
KHRS 260200Z 10010KT 18/16 A2995 RMK A01 T01780162  RH  092%=      5-min Rain = 0
KHRS 260205Z 11009KT 18/16 A2995 RMK A01 T01770161  RH  092%=      5-min Rain = 0
KHRS 260210Z 11010KT 18/16 A2995 RMK A01 T01770161  RH  092%=      5-min Rain = 0
KHRS 260215Z 11010KT 18/16 A2995 RMK A01 T01770160  RH  092%=      5-min Rain = 0
KHRS 260220Z 12011KT 18/16 A2995 RMK A01 T01780161  RH  092%=      5-min Rain = 0
KHRS 260225Z 12011KT 18/16 A2995 RMK A01 T01790163  RH  093%=      5-min Rain = 0
KHRS 260230Z 13011KT 18/17 A2995 RMK A01 T01800165  RH  093%=      5-min Rain = 0
KHRS 260235Z 13012KT 18/17 A2995 RMK A01 T01810167  RH  094%=      5-min Rain = 0
KHRS 260240Z 13011KT 18/17 A2995 RMK A01 T01810167  RH  094%=      5-min Rain = 0
KHRS 260245Z 13011KT 18/17 A2995 RMK A01 T01790166  RH  094%=      5-min Rain = 0
KHRS 260250Z 13011KT 18/17 A2995 RMK A01 T01790167  RH  095%=      5-min Rain = 0
KHRS 260255Z 13011KT 18/17 A2995 RMK A01 T01790168  RH  095%=      5-min Rain = 0
KHRS 260300Z 13011KT 18/17 A2995 RMK A01 T01800169  RH  095%=      5-min Rain = 0
KHRS 260305Z 14011KT 18/17 A2995 RMK A01 T01810170  RH  096%=      5-min Rain = 0
KHRS 260310Z 14011KT 18/17 A2996 RMK A01 T01820171  RH  096%=      5-min Rain = 0
KHRS 260315Z 13011KT 18/17 A2995 RMK A01 T01820171  RH  096%=      5-min Rain = 0
KHRS 260320Z 14010KT 18/17 A2995 RMK A01 T01810171  RH  096%=      5-min Rain = 0
KHRS 260325Z 14010KT 18/17 A2996 RMK A01 T01810170  RH  096%=      5-min Rain = 0
KHRS 260330Z 14009KT 18/17 A2996 RMK A01 T01800170  RH  096%=      5-min Rain = 0
KHRS 260335Z 14010KT 18/17 A2995 RMK A01 T01820173  RH  097%=      5-min Rain = 0
KHRS 260340Z 14010KT 19/18 A2995 RMK A01 T01850176  RH  097%=      5-min Rain = 0
KHRS 260345Z 15009KT 19/18 A2996 RMK A01 T01860177  RH  097%=      5-min Rain = 0
KHRS 260350Z 15009G14KT 19/18 A2995 RMK A01 T01870177  RH  096%=      5-min Rain = 0
KHRS 260355Z 15009KT 19/18 A2995 RMK A01 T01880178  RH  096%=      5-min Rain = 0
KHRS 260400Z 15009KT 19/18 A2995 RMK A01 T01880178  RH  096%=      5-min Rain = 0
KHRS 260405Z 15009KT 19/18 A2996 RMK A01 T01880178  RH  096%=      5-min Rain = 0
KHRS 260410Z 16011KT 19/18 A2996 RMK A01 T01890178  RH  096%=      5-min Rain = 0
KHRS 260415Z 16009KT 19/18 A2996 RMK A01 T01890178  RH  096%=      5-min Rain = 0
KHRS 260420Z 16008KT 19/18 A2996 RMK A01 T01890178  RH  096%=      5-min Rain = 0
KHRS 260425Z 17007KT 19/18 A2996 RMK A01 T01890178  RH  096%=      5-min Rain = 0
KHRS 260430Z 16009KT 19/18 A2996 RMK A01 T01880177  RH  096%=      5-min Rain = 0
KHRS 260435Z 16009KT 19/18 A2996 RMK A01 T01880177  RH  096%=      5-min Rain = 0
KHRS 260440Z 16007KT 19/18 A2996 RMK A01 T01860176  RH  096%=      5-min Rain = 0
KHRS 260445Z 15008KT 19/18 A2997 RMK A01 T01860176  RH  096%=      5-min Rain = 0
KHRS 260450Z 15007KT 19/18 A2997 RMK A01 T01860176  RH  096%=      5-min Rain = 0
KHRS 260455Z 15006KT 19/18 A2997 RMK A01 T01850175  RH  096%=      5-min Rain = 0

Page generated in 0.0113 seconds.